Ahoskie, NC (27910)

3:19 AM EDT on April 28, 2017 (GMT -0400)
Nowell Farm Road | | Change Station

Elev 75 ft 36.19 °N, 76.82 °W | Updated 1 second ago

Mostly Cloudy
Mostly Cloudy
71.1 °F
Feels Like 77 °F
N
4.3
Wind Variable Wind from South
Gusts 4.9 mph

Today
High -- | Low -- °F
--% Chance of Precip.
Yesterday
High -- | Low -- °F
Precip. -- in
Pressure 29.93 in
Visibility 10.0 miles
Clouds Scattered Clouds 12000 ft
Heat Index 77 °F
Dew Point 52 °F
Humidity 52%
Rainfall 0.00 in
Snow Depth Not available.
6:17 AM 7:53 PM
Waxing Crescent, 5% visible
METAR KFKN 280655Z AUTO 18006KT 10SM SCT120 21/18 A2993 RMK AO2 LTG DSNT N T02100177
Pressure 29.93 in
Visibility 10.0 miles
Clouds Scattered Clouds 12000 ft
Heat Index 77 °F
Dew Point 52 °F
Humidity 52%
Rainfall 0.00 in
Snow Depth Not available.
6:17 AM 7:53 PM
Waxing Crescent, 5% visible
METAR KFKN 280655Z AUTO 18006KT 10SM SCT120 21/18 A2993 RMK AO2 LTG DSNT N T02100177

Get Severe Weather Alerts

Thanks for signing up!

Be on the lookout for a verification email in your inbox.

You'll start receiving the daily forecast at 8 AM.

×

10-Day Weather Forecast

Almanac

Astronomy

Apr. 28, 2017 Rise Set
Actual Time
Civil Twilight
Nautical Twilight
Astronomical Twilight
Moon
Length of Visible Light
Length of Day
Tomorrow will be .
, % of the Moon is Illuminated

Today's Extremes

State Highs State Lows

Community

WunderPhotos

WunderBlog® & News

Nearby

Air Quality

  Air Quality AQ Index Pollutant
Not available.

Snow Depth

Station Depth Elevation

Earthquake Activity

City Distance Mag. Time & Date
Minimum magnitude displayed is 2.5.

Coastal Water Temperatures

Place Temperature

Stations

Nearby Weather Stations

Station Location Temp. Windchill Dew Point Humidity Wind Precip. Elev Updated Type
                   

Watches & Warnings

There are currently no watches in effect.